Date,TemperatureHighF,TemperatureAvgF,TemperatureLowF,DewpointHighF,DewpointAvgF,DewpointLowF,HumidityHigh,HumidityAvg,HumidityLow,PressureMaxIn,PressureMinIn,WindSpeedMaxMPH,WindSpeedAvgMPH,GustSpeedMaxMPH,PrecipitationSumIn
2013-5-1,64.6,58.8,55.9,44.7,36.1,21.2,66,44,26,29.85,29.68,13,5,15,0.00
2013-5-2,68.0,58.4,48.4,38.2,27.1,6.5,51,33,10,29.85,29.77,11,4,13,0.00
2013-5-3,67.8,54.1,39.4,37.3,17.5,-0.8,52,28,7,29.80,29.71,13,4,20,0.00
2013-5-4,59.2,51.6,44.8,32.2,27.5,19.4,52,40,31,29.74,29.62,10,4,13,0.00
2013-5-5,59.7,52.4,42.3,39.3,30.0,21.6,53,42,31,29.65,29.53,13,5,16,0.00
2013-5-6,68.5,60.0,54.3,57.0,48.3,36.7,78,66,34,29.56,29.35,17,6,17,0.24
2013-5-7,72.3,63.5,53.2,59.1,39.6,12.7,76,47,11,29.44,29.35,8,1,11,0.04
2013-5-8,67.3,56.9,46.6,47.5,35.8,28.2,62,46,26,29.50,29.41,6,0,8,0.12
2013-5-9,79.5,63.9,46.6,52.7,29.1,8.5,71,35,7,29.53,29.44,10,1,13,0.00
2013-5-10,84.9,72.1,55.0,42.9,23.6,8.4,47,22,6,29.53,29.41,11,1,15,0.00
2013-5-11,80.8,73.3,66.6,39.0,26.9,9.4,34,21,7,29.41,29.23,12,3,15,0.00
2013-5-12,71.1,64.0,49.3,39.8,17.0,-3.1,46,21,7,29.53,29.26,13,2,17,0.04
2013-5-13,65.3,53.0,35.2,20.0,2.9,-5.0,35,15,8,29.68,29.53,9,1,13,0.00
2013-5-14,70.2,55.2,33.3,21.7,4.7,-1.6,39,16,7,29.74,29.53,11,2,16,0.00
2013-5-15,86.5,70.6,52.0,16.7,9.4,-1.7,17,10,6,29.56,29.32,13,4,17,0.00
2013-5-16,88.2,76.6,65.3,37.3,21.3,8.3,32,15,5,29.44,29.35,11,4,15,0.00
2013-5-17,86.0,73.6,60.6,44.4,23.0,2.8,43,20,6,29.59,29.44,8,1,11,0.00
2013-5-18,71.1,65.9,59.7,55.7,44.8,2.7,68,49,7,29.65,29.59,7,1,8,0.87
2013-5-19,75.9,67.8,63.9,61.0,55.2,46.2,73,65,42,29.65,29.56,12,1,17,0.51
2013-5-20,79.0,70.2,65.8,63.3,54.4,46.9,74,59,35,29.59,29.50,6,0,10,0.47
2013-5-21,83.7,73.8,68.0,62.4,52.7,40.5,72,51,24,29.53,29.41,8,1,11,0.00
2013-5-22,84.9,75.6,69.3,58.0,44.3,18.2,65,37,9,29.50,29.38,12,4,13,0.00
2013-5-23,85.5,73.9,65.8,58.1,43.2,16.4,66,37,8,29.44,29.26,8,2,9,0.04
2013-5-24,69.6,62.8,44.6,49.5,24.4,-3.4,55,29,7,29.65,29.26,10,2,15,0.00
2013-5-25,71.4,54.9,36.3,22.7,7.9,-1.1,41,19,7,29.74,29.59,10,1,14,0.00
2013-5-26,73.9,58.5,38.5,27.6,11.5,0.3,45,21,6,29.74,29.65,9,1,12,0.00
2013-5-27,77.7,63.0,43.5,34.8,19.9,8.4,47,24,8,29.77,29.65,10,1,12,0.00
2013-5-28,84.9,71.8,56.7,43.3,27.9,8.6,44,23,6,29.71,29.62,12,2,15,0.00
2013-5-29,87.4,75.8,63.9,44.9,26.5,8.6,44,21,6,29.71,29.62,11,3,14,0.00
2013-5-30,87.4,75.8,64.0,47.0,28.8,8.6,46,23,6,29.74,29.65,10,2,12,0.00
2013-5-31,88.2,76.3,61.7,53.4,29.8,8.3,54,25,5,29.71,29.56,10,2,14,0.00